createdAt,value
2023-03-11T00:00:13.166Z,3.74
2023-03-11T00:02:39.578Z,3.70
2023-03-11T00:05:05.946Z,3.59
2023-03-11T00:07:32.361Z,3.69
2023-03-11T00:09:58.680Z,3.22
2023-03-11T00:12:24.976Z,3.30
2023-03-11T00:14:51.309Z,2.86
2023-03-11T00:17:17.622Z,3.08
2023-03-11T00:19:43.938Z,2.92
2023-03-11T00:22:10.254Z,3.14
2023-03-11T00:24:36.562Z,2.56
2023-03-11T00:27:03.124Z,2.55
2023-03-11T00:29:29.420Z,2.41
2023-03-11T00:31:55.755Z,2.49
2023-03-11T00:34:22.101Z,2.23
2023-03-11T00:36:48.417Z,2.30
2023-03-11T00:39:15.190Z,2.07
2023-03-11T00:41:41.514Z,2.06
2023-03-11T00:44:07.861Z,2.07
2023-03-11T00:46:34.334Z,2.03
2023-03-11T00:49:00.681Z,2.09
2023-03-11T00:51:26.980Z,2.00
2023-03-11T00:53:53.324Z,2.35
2023-03-11T00:56:19.639Z,2.05
2023-03-11T00:58:46.103Z,2.05
2023-03-11T01:01:12.450Z,2.01
2023-03-11T01:03:38.797Z,1.81
2023-03-11T01:06:05.454Z,1.95
2023-03-11T01:08:31.773Z,1.95
2023-03-11T01:10:58.105Z,1.98
2023-03-11T01:13:24.417Z,2.10
2023-03-11T01:15:50.749Z,1.90
2023-03-11T01:18:17.129Z,1.87
2023-03-11T01:20:43.446Z,1.72
2023-03-11T01:23:09.758Z,1.86
2023-03-11T01:25:36.070Z,1.89
2023-03-11T01:28:02.386Z,1.84
2023-03-11T01:30:28.705Z,1.84
2023-03-11T01:32:55.038Z,1.79
2023-03-11T01:35:21.380Z,1.83
2023-03-11T01:37:47.784Z,1.89
2023-03-11T01:40:14.135Z,1.76
2023-03-11T01:42:40.495Z,1.86
2023-03-11T01:45:06.793Z,1.92
2023-03-11T01:47:33.115Z,2.01
2023-03-11T01:49:59.422Z,1.79
2023-03-11T01:52:25.739Z,1.89
2023-03-11T01:54:52.117Z,1.81
2023-03-11T01:57:18.576Z,1.82
2023-03-11T01:59:44.931Z,1.93
2023-03-11T02:02:11.327Z,1.75
2023-03-11T02:04:37.818Z,1.62
2023-03-11T02:07:04.227Z,1.68
2023-03-11T02:09:30.535Z,1.73
2023-03-11T02:11:56.890Z,1.69
2023-03-11T02:14:23.214Z,1.64
2023-03-11T02:16:49.542Z,1.66
2023-03-11T02:19:15.869Z,1.73
2023-03-11T02:21:42.389Z,1.76
2023-03-11T02:24:08.735Z,1.59
2023-03-11T02:26:35.107Z,1.68
2023-03-11T02:29:01.427Z,1.61
2023-03-11T02:31:27.872Z,1.57
2023-03-11T02:33:54.228Z,1.60
2023-03-11T02:36:20.548Z,1.59
2023-03-11T02:38:47.573Z,1.51
2023-03-11T02:41:13.898Z,1.41
2023-03-11T02:43:40.273Z,1.52
2023-03-11T02:46:06.610Z,1.42
2023-03-11T02:48:32.913Z,1.47
2023-03-11T02:50:59.234Z,1.60
2023-03-11T02:53:25.573Z,1.50
2023-03-11T02:55:51.894Z,1.53
2023-03-11T02:58:18.196Z,1.53
2023-03-11T03:00:44.532Z,1.51
2023-03-11T03:03:10.896Z,1.49
2023-03-11T03:05:37.212Z,1.53
2023-03-11T03:08:03.607Z,1.40
2023-03-11T03:10:30.069Z,1.39
2023-03-11T03:12:56.390Z,1.22
2023-03-11T03:15:22.701Z,1.15
2023-03-11T03:17:51.551Z,1.17
2023-03-11T03:20:18.244Z,1.25
2023-03-11T03:22:44.561Z,1.11
2023-03-11T03:25:10.874Z,1.03
2023-03-11T03:27:37.215Z,1.03
2023-03-11T03:30:03.574Z,1.06
2023-03-11T03:32:30.005Z,0.88
2023-03-11T03:34:59.150Z,0.96
2023-03-11T03:37:25.479Z,0.78
2023-03-11T03:39:51.842Z,0.69
2023-03-11T03:42:18.148Z,0.73
2023-03-11T03:44:44.467Z,0.70
2023-03-11T03:47:11.987Z,0.62
2023-03-11T03:49:38.320Z,0.63
2023-03-11T03:52:04.625Z,0.61
2023-03-11T03:54:30.987Z,0.61
2023-03-11T03:56:57.313Z,0.65
2023-03-11T03:59:23.632Z,0.67
2023-03-11T04:01:50.041Z,0.66
2023-03-11T04:04:16.370Z,0.64
2023-03-11T04:06:42.693Z,0.66
2023-03-11T04:09:09.018Z,0.58
2023-03-11T04:11:35.339Z,0.66
2023-03-11T04:14:02.656Z,0.56
2023-03-11T04:16:29.054Z,0.50
2023-03-11T04:18:55.443Z,0.48
2023-03-11T04:21:21.773Z,0.52
2023-03-11T04:23:48.092Z,0.48
2023-03-11T04:26:14.402Z,0.45
2023-03-11T04:28:40.709Z,0.40
2023-03-11T04:31:07.060Z,0.41
2023-03-11T04:33:33.394Z,0.36
2023-03-11T04:35:59.747Z,0.44
2023-03-11T04:38:26.135Z,0.39
2023-03-11T04:40:52.758Z,0.39
2023-03-11T04:43:19.058Z,0.42
2023-03-11T04:45:45.357Z,0.32
2023-03-11T04:48:11.662Z,0.41
2023-03-11T04:50:38.004Z,0.37
2023-03-11T04:53:04.341Z,0.32
2023-03-11T04:55:30.716Z,0.38
2023-03-11T04:57:57.021Z,0.38
2023-03-11T05:00:25.192Z,0.54
2023-03-11T05:02:51.662Z,0.49
2023-03-11T05:05:19.552Z,0.44
2023-03-11T05:07:45.864Z,0.45
2023-03-11T05:10:12.177Z,0.49
2023-03-11T05:12:38.527Z,0.40
2023-03-11T05:15:04.924Z,0.41
2023-03-11T05:17:31.260Z,0.42
2023-03-11T05:19:57.706Z,0.54
2023-03-11T05:22:24.017Z,0.54
2023-03-11T05:24:50.385Z,0.54
2023-03-11T05:27:18.168Z,0.51
2023-03-11T05:29:45.138Z,0.66
2023-03-11T05:32:11.739Z,0.56
2023-03-11T05:34:38.122Z,0.58
2023-03-11T05:37:04.444Z,0.54
2023-03-11T05:39:30.763Z,0.57
2023-03-11T05:41:57.083Z,0.60
2023-03-11T05:44:23.423Z,0.62
2023-03-11T05:46:49.795Z,0.62
2023-03-11T05:49:16.186Z,0.68
2023-03-11T05:51:42.533Z,0.67
2023-03-11T05:54:15.251Z,0.64
2023-03-11T05:56:41.672Z,0.71
2023-03-11T05:59:08.024Z,0.67
2023-03-11T06:01:34.435Z,0.71
2023-03-11T06:04:00.811Z,0.76
2023-03-11T06:06:27.346Z,0.75
2023-03-11T06:08:53.675Z,0.79
2023-03-11T06:11:20.202Z,0.75
2023-03-11T06:13:46.559Z,0.81
2023-03-11T06:16:12.931Z,0.68
2023-03-11T06:18:39.287Z,0.76
2023-03-11T06:21:05.604Z,0.76
2023-03-11T06:23:32.101Z,0.77
2023-03-11T06:25:58.435Z,0.77
2023-03-11T06:28:24.750Z,0.80
2023-03-11T06:30:51.083Z,0.80
2023-03-11T06:33:17.413Z,0.79
2023-03-11T06:35:43.783Z,0.78
2023-03-11T06:38:10.145Z,0.83
2023-03-11T06:40:36.454Z,0.89
2023-03-11T06:43:02.814Z,0.85
2023-03-11T06:45:29.229Z,0.91
2023-03-11T06:47:55.565Z,0.89
2023-03-11T06:50:23.841Z,0.90
2023-03-11T06:52:50.180Z,0.89
2023-03-11T06:55:16.508Z,0.90
2023-03-11T06:57:44.801Z,0.82
2023-03-11T07:00:12.610Z,0.80
2023-03-11T07:02:38.933Z,0.83
2023-03-11T07:05:05.697Z,0.82
2023-03-11T07:07:32.031Z,0.86
2023-03-11T07:09:58.424Z,0.88
2023-03-11T07:12:25.517Z,0.82
2023-03-11T07:14:51.890Z,0.73
2023-03-11T07:17:18.226Z,0.86
2023-03-11T07:19:44.584Z,0.86
2023-03-11T07:22:10.934Z,0.88
2023-03-11T07:24:37.288Z,0.77
2023-03-11T07:27:03.633Z,0.76
2023-03-11T07:29:29.970Z,0.83
2023-03-11T07:31:56.288Z,0.75
2023-03-11T07:34:22.626Z,0.83
2023-03-11T07:36:49.007Z,0.91
2023-03-11T07:39:15.518Z,0.87
2023-03-11T07:41:41.887Z,0.86
2023-03-11T07:44:09.926Z,0.83
2023-03-11T07:46:36.320Z,0.76
2023-03-11T07:49:03.824Z,0.76
2023-03-11T07:51:30.184Z,0.74
2023-03-11T07:53:56.505Z,0.87
2023-03-11T07:56:23.762Z,0.87
2023-03-11T07:58:50.080Z,0.91
2023-03-11T08:01:16.461Z,0.78
2023-03-11T08:03:42.822Z,0.89
2023-03-11T08:06:09.134Z,0.72
2023-03-11T08:08:35.449Z,0.89
2023-03-11T08:11:01.754Z,0.84
2023-03-11T08:13:28.178Z,0.84
2023-03-11T08:15:54.565Z,0.80
2023-03-11T08:18:20.910Z,0.87
2023-03-11T08:20:47.235Z,0.88
2023-03-11T08:23:13.675Z,0.79
2023-03-11T08:25:40.049Z,0.93
2023-03-11T08:28:07.742Z,0.96
2023-03-11T08:30:34.066Z,0.94
2023-03-11T08:33:00.366Z,1.08
2023-03-11T08:35:27.093Z,0.97
2023-03-11T08:37:53.627Z,1.03
2023-03-11T08:40:19.945Z,1.07
2023-03-11T08:42:46.266Z,0.95
2023-03-11T08:45:12.800Z,1.01
2023-03-11T08:47:39.275Z,1.11
2023-03-11T08:50:05.582Z,1.10
2023-03-11T08:52:31.956Z,1.26
2023-03-11T08:54:58.255Z,1.15
2023-03-11T08:57:24.640Z,1.25
2023-03-11T08:59:50.969Z,1.17
2023-03-11T09:02:17.505Z,1.22
2023-03-11T09:04:43.873Z,1.22
2023-03-11T09:07:10.186Z,1.13
2023-03-11T09:09:36.496Z,1.22
2023-03-11T09:12:02.799Z,1.17
2023-03-11T09:14:29.105Z,1.35
2023-03-11T09:16:55.421Z,1.16
2023-03-11T09:19:21.732Z,1.02
2023-03-11T09:21:48.033Z,1.08
2023-03-11T09:24:14.347Z,1.12
2023-03-11T09:26:40.686Z,0.90
2023-03-11T09:29:07.016Z,0.83
2023-03-11T09:31:33.393Z,0.83
2023-03-11T09:33:59.859Z,0.71
2023-03-11T09:36:26.295Z,0.69
2023-03-11T09:38:52.646Z,0.80
2023-03-11T09:41:19.129Z,0.66
2023-03-11T09:43:45.602Z,0.80
2023-03-11T09:46:11.961Z,0.82
2023-03-11T09:48:38.422Z,0.67
2023-03-11T09:51:08.362Z,0.78
2023-03-11T09:53:34.719Z,0.80
2023-03-11T09:56:01.322Z,0.82
2023-03-11T09:58:27.814Z,0.86
2023-03-11T10:00:54.481Z,1.07
2023-03-11T10:03:39.945Z,0.99
2023-03-11T10:06:06.314Z,1.07
2023-03-11T10:08:32.684Z,0.92
2023-03-11T10:10:59.067Z,1.14
2023-03-11T10:13:25.461Z,1.20
2023-03-11T10:15:51.831Z,1.14
2023-03-11T10:18:18.317Z,1.09
2023-03-11T10:20:44.656Z,1.26
2023-03-11T10:23:11.098Z,1.27
2023-03-11T10:25:37.427Z,1.35
2023-03-11T10:28:03.825Z,1.47
2023-03-11T10:30:30.169Z,1.56
2023-03-11T10:32:56.576Z,1.72
2023-03-11T10:35:22.999Z,1.72
2023-03-11T10:37:50.218Z,1.72
2023-03-11T10:40:16.652Z,1.68
2023-03-11T10:42:42.988Z,1.84
2023-03-11T10:45:09.289Z,1.91
2023-03-11T10:47:35.630Z,2.20
2023-03-11T10:50:01.938Z,1.85
2023-03-11T10:52:28.272Z,1.84
2023-03-11T10:54:54.579Z,2.20
2023-03-11T10:57:20.920Z,2.29
2023-03-11T10:59:47.317Z,2.50
2023-03-11T11:02:13.638Z,2.14
2023-03-11T11:04:39.994Z,2.03
2023-03-11T11:07:07.434Z,2.10
2023-03-11T11:09:33.792Z,1.94
2023-03-11T11:12:00.537Z,1.94
2023-03-11T11:14:26.906Z,1.82
2023-03-11T11:16:53.285Z,1.52
2023-03-11T11:19:22.626Z,1.53
2023-03-11T11:21:48.939Z,1.56
2023-03-11T11:24:16.691Z,1.36
2023-03-11T11:26:43.214Z,1.41
2023-03-11T11:29:09.570Z,1.51
2023-03-11T11:31:35.934Z,1.68
2023-03-11T11:34:02.299Z,1.69
2023-03-11T11:36:28.605Z,2.03
2023-03-11T11:38:54.979Z,2.28
2023-03-11T11:41:21.356Z,2.15
2023-03-11T11:43:47.759Z,2.10
2023-03-11T11:46:14.097Z,1.99
2023-03-11T11:48:41.368Z,2.07
2023-03-11T11:51:08.983Z,2.43
2023-03-11T11:53:35.286Z,2.84
2023-03-11T11:56:01.641Z,2.84
2023-03-11T11:58:28.632Z,3.13
2023-03-11T12:00:54.949Z,3.20
2023-03-11T12:03:21.330Z,2.67
2023-03-11T12:05:47.730Z,2.90
2023-03-11T12:08:14.096Z,2.66
2023-03-11T12:10:40.401Z,2.49
2023-03-11T12:13:06.709Z,2.41
2023-03-11T12:15:33.077Z,2.09
2023-03-11T12:17:59.402Z,2.25
2023-03-11T12:20:28.125Z,2.15
2023-03-11T12:22:54.569Z,2.09
2023-03-11T12:25:22.399Z,2.15
2023-03-11T12:27:50.113Z,2.50
2023-03-11T12:30:16.459Z,2.09
2023-03-11T12:32:42.917Z,2.13
2023-03-11T12:35:10.904Z,1.94
2023-03-11T12:37:37.226Z,1.85
2023-03-11T12:40:04.604Z,2.10
2023-03-11T12:42:30.937Z,2.33
2023-03-11T12:44:57.292Z,2.36
2023-03-11T12:47:23.699Z,2.24
2023-03-11T12:49:50.092Z,2.45
2023-03-11T12:52:16.406Z,2.45
2023-03-11T12:54:42.753Z,2.20
2023-03-11T12:57:09.064Z,2.16
2023-03-11T12:59:35.390Z,1.85
2023-03-11T13:02:01.775Z,1.90
2023-03-11T13:04:32.217Z,1.94
2023-03-11T13:06:58.544Z,1.98
2023-03-11T13:09:24.858Z,2.15
2023-03-11T13:11:51.484Z,2.14
2023-03-11T13:14:17.913Z,1.77
2023-03-11T13:16:44.258Z,1.54
2023-03-11T13:19:10.591Z,1.74
2023-03-11T13:21:36.902Z,1.79
2023-03-11T13:24:03.231Z,1.89
2023-03-11T13:26:30.411Z,2.20
2023-03-11T13:28:56.738Z,2.33
2023-03-11T13:31:23.183Z,2.51
2023-03-11T13:33:49.556Z,2.54
2023-03-11T13:36:15.891Z,2.61
2023-03-11T13:38:42.218Z,2.52
2023-03-11T13:41:08.538Z,2.63
2023-03-11T13:43:34.866Z,2.40
2023-03-11T13:46:01.222Z,2.57
2023-03-11T13:48:28.325Z,2.68
2023-03-11T13:50:54.692Z,2.47
2023-03-11T13:53:21.058Z,2.45
2023-03-11T13:55:47.417Z,2.48
2023-03-11T13:58:13.762Z,2.46
2023-03-11T14:00:40.165Z,2.42
2023-03-11T14:03:06.631Z,2.50
2023-03-11T14:05:32.957Z,2.46
2023-03-11T14:07:59.287Z,2.25
2023-03-11T14:10:25.668Z,2.34
2023-03-11T14:12:52.081Z,2.35
2023-03-11T14:15:18.455Z,2.29
2023-03-11T14:17:47.029Z,2.27
2023-03-11T14:20:18.008Z,2.52
2023-03-11T14:22:44.368Z,2.45
2023-03-11T14:25:10.695Z,2.72
2023-03-11T14:27:38.034Z,2.54
2023-03-11T14:30:04.366Z,2.45
2023-03-11T14:32:30.940Z,2.38
2023-03-11T14:34:57.280Z,2.31
2023-03-11T14:37:23.592Z,2.09
2023-03-11T14:39:53.412Z,2.38
2023-03-11T14:42:20.415Z,2.45
2023-03-11T14:44:46.840Z,2.76
2023-03-11T14:47:13.212Z,2.64
2023-03-11T14:49:39.620Z,2.50
2023-03-11T14:52:05.931Z,2.49
2023-03-11T14:54:32.241Z,2.60
2023-03-11T14:56:58.556Z,2.47
2023-03-11T14:59:26.905Z,2.48
2023-03-11T15:01:53.324Z,2.60
2023-03-11T15:04:22.893Z,2.53
2023-03-11T15:06:53.177Z,2.52
2023-03-11T15:09:19.546Z,2.51
2023-03-11T15:11:45.917Z,2.33
2023-03-11T15:14:12.249Z,2.32
2023-03-11T15:16:38.631Z,2.34
2023-03-11T15:19:04.982Z,2.33
2023-03-11T15:21:31.352Z,2.34
2023-03-11T15:23:57.702Z,2.28
2023-03-11T15:26:24.047Z,2.21
2023-03-11T15:28:50.377Z,2.23
2023-03-11T15:31:21.164Z,2.21
2023-03-11T15:33:47.491Z,2.39
2023-03-11T15:36:13.814Z,2.48
2023-03-11T15:38:40.292Z,2.42
2023-03-11T15:41:06.625Z,2.45
2023-03-11T15:43:32.955Z,2.47
2023-03-11T15:45:59.329Z,2.53
2023-03-11T15:48:27.892Z,2.35
2023-03-11T15:50:54.994Z,2.34
2023-03-11T15:53:21.573Z,2.37
2023-03-11T15:55:47.914Z,2.59
2023-03-11T15:58:14.297Z,2.64
2023-03-11T16:00:40.624Z,2.74
2023-03-11T16:03:07.062Z,2.52
2023-03-11T16:05:33.399Z,2.35
2023-03-11T16:07:59.705Z,2.36
2023-03-11T16:10:28.829Z,2.28
2023-03-11T16:12:55.233Z,2.20
2023-03-11T16:15:24.772Z,2.37
2023-03-11T16:17:51.355Z,2.44
2023-03-11T16:20:17.679Z,2.24
2023-03-11T16:22:44.028Z,2.41
2023-03-11T16:25:10.341Z,2.30
2023-03-11T16:27:36.769Z,2.25
2023-03-11T16:30:03.848Z,2.11
2023-03-11T16:32:30.298Z,2.11
2023-03-11T16:34:56.666Z,2.14
2023-03-11T16:37:23.020Z,2.36
2023-03-11T16:39:49.404Z,2.22
2023-03-11T16:42:15.713Z,2.40
2023-03-11T16:44:42.024Z,2.17
2023-03-11T16:47:08.334Z,2.09
2023-03-11T16:49:34.678Z,2.12
2023-03-11T16:52:01.121Z,1.99
2023-03-11T16:54:27.460Z,2.04
2023-03-11T16:56:53.767Z,2.05
2023-03-11T16:59:20.071Z,2.00
2023-03-11T17:01:46.422Z,1.85
2023-03-11T17:04:12.745Z,2.01
2023-03-11T17:06:40.300Z,1.87
2023-03-11T17:09:06.597Z,1.91
2023-03-11T17:11:34.459Z,1.77
2023-03-11T17:14:15.529Z,1.83
2023-03-11T17:16:42.790Z,1.84
2023-03-11T17:19:09.140Z,1.63
2023-03-11T17:21:35.479Z,1.58
2023-03-11T17:24:01.782Z,1.65
2023-03-11T17:26:30.878Z,1.70
2023-03-11T17:28:57.212Z,1.61
2023-03-11T17:31:23.545Z,1.47
2023-03-11T17:33:50.793Z,1.54
2023-03-11T17:36:17.237Z,1.38
2023-03-11T17:38:43.562Z,1.44
2023-03-11T17:41:09.876Z,1.41
2023-03-11T17:43:36.224Z,1.31
2023-03-11T17:46:02.603Z,1.36
2023-03-11T17:48:28.926Z,1.33
2023-03-11T17:50:55.251Z,1.34
2023-03-11T17:53:21.571Z,1.17
2023-03-11T17:55:47.885Z,1.13
2023-03-11T17:58:14.194Z,1.21
2023-03-11T18:00:40.524Z,1.06
2023-03-11T18:03:06.864Z,1.13
2023-03-11T18:05:33.240Z,1.23
2023-03-11T18:07:59.551Z,1.19
2023-03-11T18:10:25.907Z,1.21
2023-03-11T18:12:52.269Z,1.08
2023-03-11T18:15:19.591Z,1.05
2023-03-11T18:17:46.242Z,1.00
2023-03-11T18:20:13.674Z,1.13
2023-03-11T18:22:44.456Z,0.96
2023-03-11T18:25:13.970Z,1.07
2023-03-11T18:27:40.315Z,1.01
2023-03-11T18:30:06.758Z,1.10
2023-03-11T18:32:33.096Z,1.20
2023-03-11T18:34:59.450Z,0.77
2023-03-11T18:37:25.824Z,0.80
2023-03-11T18:39:52.267Z,0.97
2023-03-11T18:42:18.657Z,0.93
2023-03-11T18:44:44.986Z,0.86
2023-03-11T18:47:11.396Z,0.97
2023-03-11T18:49:37.705Z,0.94
2023-03-11T18:52:04.021Z,0.89
2023-03-11T18:54:30.368Z,0.91
2023-03-11T18:56:56.705Z,0.91
2023-03-11T18:59:23.058Z,0.80
2023-03-11T19:01:49.385Z,0.85
2023-03-11T19:04:15.803Z,0.67
2023-03-11T19:06:42.155Z,0.60
2023-03-11T19:09:08.465Z,0.56
2023-03-11T19:11:34.798Z,0.46
2023-03-11T19:14:01.158Z,0.55
2023-03-11T19:16:27.854Z,0.39
2023-03-11T19:18:55.223Z,0.42
2023-03-11T19:21:21.554Z,0.34
2023-03-11T19:23:50.043Z,0.37
2023-03-11T19:26:16.371Z,0.29
2023-03-11T19:28:42.801Z,0.28
2023-03-11T19:31:09.197Z,0.19
2023-03-11T19:33:35.568Z,0.20
2023-03-11T19:36:02.036Z,0.06
2023-03-11T19:38:28.437Z,0.12
2023-03-11T19:40:54.835Z,0.11
2023-03-11T19:43:21.173Z,-0.09
2023-03-11T19:45:47.545Z,0.03
2023-03-11T19:48:13.898Z,-0.02
2023-03-11T19:50:40.248Z,-0.20
2023-03-11T19:53:06.591Z,-0.20
2023-03-11T19:55:32.919Z,-0.34
2023-03-11T19:57:59.264Z,-0.68
2023-03-11T20:00:26.248Z,-0.45
2023-03-11T20:02:52.678Z,-0.36
2023-03-11T20:05:19.041Z,-0.53
2023-03-11T20:07:45.343Z,-0.43
2023-03-11T20:10:11.724Z,-0.52
2023-03-11T20:12:38.104Z,-0.44
2023-03-11T20:15:04.510Z,-0.48
2023-03-11T20:17:30.972Z,-0.46
2023-03-11T20:19:57.350Z,-0.49
2023-03-11T20:22:23.800Z,-0.53
2023-03-11T20:24:50.155Z,-0.53
2023-03-11T20:27:16.547Z,-0.46
2023-03-11T20:29:42.909Z,-0.49
2023-03-11T20:32:09.295Z,-0.53
2023-03-11T20:34:35.612Z,-0.56
2023-03-11T20:37:01.969Z,-0.59
2023-03-11T20:39:28.306Z,-0.52
2023-03-11T20:41:54.754Z,-0.43
2023-03-11T20:44:21.188Z,-0.53
2023-03-11T20:46:49.571Z,-0.49
2023-03-11T20:49:16.121Z,-0.61
2023-03-11T20:51:44.018Z,-0.61
2023-03-11T20:54:12.107Z,-0.64
2023-03-11T20:56:38.494Z,-0.65
2023-03-11T20:59:07.092Z,-0.65
2023-03-11T21:01:33.983Z,-0.68
2023-03-11T21:04:00.779Z,-0.83
2023-03-11T21:06:27.493Z,-0.91
2023-03-11T21:08:53.919Z,-0.86
2023-03-11T21:11:20.281Z,-1.02
2023-03-11T21:13:46.759Z,-0.87
2023-03-11T21:16:13.261Z,-0.92
2023-03-11T21:18:39.792Z,-0.91
2023-03-11T21:21:08.533Z,-1.03
2023-03-11T21:23:35.888Z,-1.08
2023-03-11T21:26:02.360Z,-1.05
2023-03-11T21:28:28.947Z,-1.09
2023-03-11T21:30:55.336Z,-1.29
2023-03-11T21:33:21.796Z,-1.15
2023-03-11T21:35:48.282Z,-1.18
2023-03-11T21:38:15.881Z,-1.17
2023-03-11T21:40:42.294Z,-1.22
2023-03-11T21:43:08.768Z,-1.18
2023-03-11T21:45:35.636Z,-1.46
2023-03-11T21:48:06.678Z,-1.33
2023-03-11T21:50:33.124Z,-1.53
2023-03-11T21:52:59.498Z,-1.33
2023-03-11T21:55:26.075Z,-1.36
2023-03-11T21:57:52.555Z,-1.34
2023-03-11T22:00:18.945Z,-1.41
2023-03-11T22:02:45.381Z,-1.36
2023-03-11T22:05:12.322Z,-1.40
2023-03-11T22:07:38.768Z,-1.38
2023-03-11T22:10:05.100Z,-1.51
2023-03-11T22:12:31.581Z,-1.50
2023-03-11T22:14:58.010Z,-1.47
2023-03-11T22:17:24.420Z,-1.66
2023-03-11T22:19:50.843Z,-1.54
2023-03-11T22:22:17.193Z,-1.47
2023-03-11T22:24:43.513Z,-1.45
2023-03-11T22:27:09.822Z,-1.49
2023-03-11T22:29:36.149Z,-1.42
2023-03-11T22:32:02.507Z,-1.45
2023-03-11T22:34:28.855Z,-1.45
2023-03-11T22:36:55.186Z,-1.43
2023-03-11T22:39:21.530Z,-1.53
2023-03-11T22:41:47.834Z,-1.66
2023-03-11T22:44:14.167Z,-1.72
2023-03-11T22:46:40.487Z,-1.63
2023-03-11T22:49:06.846Z,-1.62
2023-03-11T22:51:33.246Z,-1.45
2023-03-11T22:53:59.568Z,-1.52
2023-03-11T22:56:26.374Z,-1.49
2023-03-11T22:58:52.752Z,-1.53
2023-03-11T23:01:19.057Z,-1.50
2023-03-11T23:03:45.547Z,-1.60
2023-03-11T23:06:11.918Z,-1.65
2023-03-11T23:08:38.252Z,-1.67
2023-03-11T23:11:04.568Z,-1.77
2023-03-11T23:13:30.933Z,-1.77
2023-03-11T23:15:57.253Z,-1.74
2023-03-11T23:18:23.573Z,-1.74
2023-03-11T23:20:49.910Z,-1.93
2023-03-11T23:23:16.217Z,-1.94
2023-03-11T23:25:42.644Z,-1.94
2023-03-11T23:28:08.986Z,-2.02
2023-03-11T23:30:35.383Z,-2.06
2023-03-11T23:33:03.141Z,-2.01
2023-03-11T23:35:29.616Z,-2.04
2023-03-11T23:37:55.940Z,-2.01
2023-03-11T23:40:22.274Z,-1.92
2023-03-11T23:42:48.587Z,-1.99
2023-03-11T23:45:14.898Z,-1.99
2023-03-11T23:47:41.210Z,-1.95
2023-03-11T23:50:07.534Z,-2.13
2023-03-11T23:52:34.017Z,-2.30
2023-03-11T23:55:00.332Z,-2.22
2023-03-11T23:57:26.636Z,-2.20
2023-03-11T23:59:52.968Z,-2.17
